Aviation Digital Data Service (ADDS)

Output produced by METARs form (0859 UTC 23 July 2019)
found at http://www.aviationweather.gov/metar/data/
 
METAR text: EPWA 230830Z 36003KT 300V060 9999 BKN040 21/11 Q1019 NOSIG
Conditions at: EPWA (WARSAW/OKECIE , PL) observed 0830 UTC 23 July 2019
Temperature: 21.0°C (70°F)
Dewpoint: 11.0°C (52°F) [RH = 53%]
Pressure (altimeter): 30.09 inches Hg (1019.0 mb)
Winds: from the N (360 degrees) at 3 MPH (3 knots; 1.5 m/s)
Visibility: 6 or more miles (10+ km)
Ceiling: 4000 feet AGL
Clouds: broken clouds at 4000 feet AGL
Weather: no significant weather observed at this time

METAR text: EPWA 230800Z VRB01KT 9999 BKN040 20/10 Q1019 NOSIG
Conditions at: EPWA (WARSAW/OKECIE , PL) observed 0800 UTC 23 July 2019
Temperature: 20.0°C (68°F)
Dewpoint: 10.0°C (50°F) [RH = 53%]
Pressure (altimeter): 30.09 inches Hg (1019.0 mb)
Winds: variable direction winds at 1 MPH (1 knots; 0.5 m/s)
Visibility: 6 or more miles (10+ km)
Ceiling: 4000 feet AGL
Clouds: broken clouds at 4000 feet AGL
Weather: no significant weather observed at this time

Forecast for: EPWA (WARSAW/OKECIE , PL)
Text: TAF EPWA 230830Z 2309/2409 28004KT 9999 BKN035
Forecast period: 0900 to 2200 UTC 23 July 2019
Forecast type: FROM: standard forecast or significant change
Winds: from the W (280 degrees) at 5 MPH (4 knots; 2.1 m/s)
Visibility: 6 or more miles 10+ km)
Ceiling: 3500 feet AGL
Clouds: broken clouds at 3500 feet AGL
Weather: no significant weather forecast for this period
Text: PROB40 2309/2312 -RA BKN014
Forecast period: 0900 to 1200 UTC 23 July 2019
Forecast type: PROBABLE: 40 percent likelihood of the following during this time
Visibility: missing
Ceiling: 1400 feet AGL
Clouds: broken clouds at 1400 feet AGL
Weather: -RA  (light rain)
Text: BECMG 2322/2401 BKN012
Forecast period: 2200 UTC 23 July 2019 to 0900 UTC 24 July 2019
Forecast type: BECOMING: Conditions expected to become as follows by 0100 UTC 24 July 2019
Winds: from the W (280 degrees) at 5 MPH (4 knots; 2.1 m/s)
Visibility: 6 or more miles 10+ km)
Ceiling: 1200 feet AGL
Clouds: broken clouds at 1200 feet AGL
Weather: no significant weather forecast for this period
Text: TEMPO 2322/2408 4000 -RA BR BKN006
Forecast period: 2200 UTC 23 July 2019 to 0800 UTC 24 July 2019
Forecast type: TEMPORARY: The following changes expected for less than half the time period
Visibility: 2.49 miles (4.01 km)
Ceiling: 600 feet AGL
Clouds: broken clouds at 600 feet AGL
Weather: -RA BR  (light rain, mist)